Time;durP1;ratioP1;P1;durP2;ratioP2;P2;SDS_P1;SDS_P2;PMS_P1;PMS_P2;Temp;Humidity;BMP_temperature;BMP_pressure;BME280_temperature;BME280_humidity;BME280_pressure;Samples;Min_cycle;Max_cycle;Signal;HPM_P1;HPM_P2
2023/09/22 00:01:57;;;;;;;0.93;0.13;;;;;;;18.01;76.18;98823.28;10426507;28;20439;-59
2023/09/22 00:06:59;;;;;;;1.90;0.30;;;;;;;18.04;76.04;98828.97;10427914;28;20041;-57
2023/09/22 00:12:01;;;;;;;1.65;0.40;;;;;;;18.06;75.95;98836.06;10424415;28;20403;-59
2023/09/22 00:17:03;;;;;;;1.33;0.30;;;;;;;18.03;75.88;98843.69;10421675;28;20061;-59
2023/09/22 00:22:05;;;;;;;1.63;0.40;;;;;;;18.00;75.71;98827.88;10424595;28;20064;-59
2023/09/22 00:27:06;;;;;;;0.90;0.30;;;;;;;17.92;75.94;98846.59;10425171;28;20048;-59
2023/09/22 00:32:07;;;;;;;0.80;0.30;;;;;;;17.85;76.01;98838.63;10428262;28;20093;-60
2023/09/22 00:37:09;;;;;;;1.08;0.35;;;;;;;17.83;75.92;98835.34;10426883;28;20068;-59
2023/09/22 00:42:11;;;;;;;1.83;0.30;;;;;;;17.80;75.85;98858.44;10428021;28;20500;-59
2023/09/22 00:47:15;;;;;;;1.63;0.40;;;;;;;17.79;75.68;98864.97;10422917;28;20679;-59
2023/09/22 00:52:22;;;;;;;1.17;0.40;;;;;;;17.75;75.67;98850.25;10426120;28;20627;-58
2023/09/22 00:57:23;;;;;;;0.60;0.40;;;;;;;17.78;75.53;98849.72;10427435;28;20045;-59
2023/09/22 01:02:25;;;;;;;7.30;0.40;;;;;;;17.79;75.45;98855.97;10425985;28;20084;-58
2023/09/22 01:07:27;;;;;;;3.78;0.50;;;;;;;17.83;75.54;98870.66;10408385;28;20049;-59
2023/09/22 01:12:28;;;;;;;0.75;0.30;;;;;;;17.85;75.19;98873.97;10422208;28;20555;-58
2023/09/22 01:17:30;;;;;;;0.65;0.38;;;;;;;17.79;75.25;98873.13;10416100;28;20076;-58
2023/09/22 01:22:33;;;;;;;2.45;0.40;;;;;;;17.81;74.91;98859.25;10420904;28;20056;-59
2023/09/22 01:27:35;;;;;;;2.47;0.50;;;;;;;17.73;75.10;98862.44;10419303;28;20056;-59
2023/09/22 01:32:37;;;;;;;1.27;0.40;;;;;;;17.73;74.82;98871.44;10422479;28;20061;-59
2023/09/22 01:37:50;;;;;;;1.33;0.43;;;;;;;17.65;74.98;98874.59;10426993;28;20072;-59
2023/09/22 01:42:51;;;;;;;2.15;0.75;;;;;;;17.58;74.92;98884.88;10420847;28;20046;-59
2023/09/22 01:47:53;;;;;;;3.53;0.50;;;;;;;17.51;75.13;98885.09;10416651;28;20500;-58
2023/09/22 01:52:54;;;;;;;3.47;0.50;;;;;;;17.44;74.98;98879.88;10420690;28;20124;-58
2023/09/22 01:57:55;;;;;;;5.93;0.50;;;;;;;17.38;75.13;98889.06;10423432;28;20049;-58
2023/09/22 02:02:57;;;;;;;2.05;0.40;;;;;;;17.33;74.98;98896.31;10419425;28;20095;-58
2023/09/22 02:07:59;;;;;;;2.83;0.73;;;;;;;17.32;74.77;98911.81;10415301;28;20174;-58
2023/09/22 02:13:01;;;;;;;2.10;0.60;;;;;;;17.29;74.82;98917.75;10419284;28;20140;-57
2023/09/22 02:18:03;;;;;;;2.20;0.45;;;;;;;17.27;74.61;98886.50;10406024;28;20045;-56
2023/09/22 02:23:05;;;;;;;4.45;0.40;;;;;;;17.19;74.83;98902.16;10415138;28;20052;-57
2023/09/22 02:28:06;;;;;;;1.58;0.40;;;;;;;17.16;74.72;98934.44;10418995;28;20041;-57
2023/09/22 02:33:08;;;;;;;0.40;0.32;;;;;;;17.14;74.58;98906.72;10423421;28;20115;-57
2023/09/22 02:38:10;;;;;;;1.05;0.30;;;;;;;17.12;74.24;98906.97;10417770;28;20076;-57
2023/09/22 02:43:12;;;;;;;1.02;0.40;;;;;;;17.14;73.96;98904.84;10417769;28;20076;-56
2023/09/22 02:48:13;;;;;;;3.28;0.40;;;;;;;17.11;74.10;98899.91;10420968;28;20037;-57
2023/09/22 02:53:15;;;;;;;1.42;0.60;;;;;;;17.17;73.87;98870.91;10420566;28;20560;-57
2023/09/22 02:58:16;;;;;;;1.25;0.40;;;;;;;16.91;74.38;98908.63;10424280;28;20048;-56
2023/09/22 03:03:17;;;;;;;0.70;0.50;;;;;;;16.83;74.15;98890.09;10418191;28;20053;-56
2023/09/22 03:08:19;;;;;;;1.95;0.40;;;;;;;16.84;73.81;98873.56;10417343;28;20076;-56
2023/09/22 03:13:20;;;;;;;5.13;0.40;;;;;;;16.88;73.77;98875.75;10422263;28;20057;-57
2023/09/22 03:18:23;;;;;;;2.17;0.50;;;;;;;16.87;73.28;98884.97;10432364;28;20052;-56
2023/09/22 03:23:25;;;;;;;0.52;0.30;;;;;;;16.81;73.38;98912.03;10425658;28;20087;-58
2023/09/22 03:28:26;;;;;;;1.75;0.40;;;;;;;16.72;73.49;98935.22;10428085;28;20052;-57
2023/09/22 03:33:28;;;;;;;1.80;0.40;;;;;;;16.65;73.34;98930.00;10429881;28;20041;-57
2023/09/22 03:38:29;;;;;;;2.17;0.60;;;;;;;16.61;73.30;98933.47;10425720;28;20157;-58
2023/09/22 03:43:31;;;;;;;1.15;0.40;;;;;;;16.57;73.43;98938.56;10429119;28;20435;-58
2023/09/22 03:48:33;;;;;;;1.10;0.40;;;;;;;16.49;73.40;98922.72;10421706;28;20488;-57
2023/09/22 03:53:34;;;;;;;1.08;0.40;;;;;;;16.54;73.35;98935.53;10424628;28;20045;-58
2023/09/22 03:58:36;;;;;;;0.70;0.30;;;;;;;16.58;73.18;98920.38;10424382;28;20041;-58
2023/09/22 04:03:37;;;;;;;1.13;0.40;;;;;;;16.58;73.27;98925.81;10416506;28;20045;-58
2023/09/22 04:08:39;;;;;;;0.77;0.47;;;;;;;16.60;73.09;98965.19;10425261;28;20531;-58
2023/09/22 04:13:40;;;;;;;1.85;0.43;;;;;;;16.54;73.12;98968.88;10431229;28;20427;-58
2023/09/22 04:18:42;;;;;;;1.92;0.45;;;;;;;16.50;73.17;98985.91;10418520;28;20516;-58
2023/09/22 04:23:50;;;;;;;3.30;0.70;;;;;;;16.43;73.31;98989.63;10427863;28;20057;-57
2023/09/22 04:28:51;;;;;;;2.20;0.50;;;;;;;16.44;73.10;99004.00;10427223;28;20041;-58
2023/09/22 04:33:53;;;;;;;3.03;0.55;;;;;;;16.42;73.02;99001.53;10432647;28;20040;-56
2023/09/22 04:38:54;;;;;;;2.08;0.57;;;;;;;16.41;73.06;98986.34;10430988;28;20531;-56
2023/09/22 04:43:55;;;;;;;0.90;0.47;;;;;;;16.45;73.00;98965.78;10421878;28;20365;-56
2023/09/22 04:48:57;;;;;;;1.55;0.43;;;;;;;16.40;72.84;98973.03;10425547;28;20060;-57
2023/09/22 04:53:58;;;;;;;2.03;0.47;;;;;;;16.36;73.16;98969.97;10424237;28;20136;-56
2023/09/22 04:59:03;;;;;;;0.90;0.52;;;;;;;16.36;72.99;98985.44;10422084;28;20972;-56
2023/09/22 05:04:05;;;;;;;12.50;1.50;;;;;;;16.42;72.72;98985.25;10426729;28;20527;-56
2023/09/22 05:09:07;;;;;;;0.57;0.30;;;;;;;16.44;72.65;98972.28;10426367;28;20049;-56
2023/09/22 05:14:08;;;;;;;2.58;0.88;;;;;;;16.47;72.46;98965.56;10425866;28;20053;-58
2023/09/22 05:19:10;;;;;;;2.40;0.80;;;;;;;16.44;72.59;98976.88;10421356;28;20547;-57
2023/09/22 05:24:12;;;;;;;3.38;0.80;;;;;;;16.46;72.94;98977.47;10422257;28;20140;-58
2023/09/22 05:29:13;;;;;;;3.38;0.63;;;;;;;16.56;72.67;98976.78;10417250;28;20121;-58
2023/09/22 05:34:14;;;;;;;1.48;0.60;;;;;;;16.65;72.74;98975.31;10416828;28;20541;-57
2023/09/22 05:39:16;;;;;;;2.38;0.55;;;;;;;16.73;72.39;98974.06;10409424;28;20132;-57
2023/09/22 05:44:18;;;;;;;0.80;0.40;;;;;;;16.80;72.57;99007.25;10412085;28;20052;-62
2023/09/22 05:49:19;;;;;;;3.58;0.50;;;;;;;16.81;72.55;99025.19;10421388;28;20055;-60
2023/09/22 05:54:21;;;;;;;1.95;0.70;;;;;;;16.91;72.54;99044.34;10425576;28;20048;-61
2023/09/22 05:59:24;;;;;;;2.15;0.47;;;;;;;17.02;72.80;99039.88;10417827;28;20435;-61
2023/09/22 06:04:25;;;;;;;6.78;1.67;;;;;;;17.04;72.76;99054.88;10419600;28;20048;-62
2023/09/22 06:09:27;;;;;;;1.10;0.50;;;;;;;17.06;73.02;99019.28;10421943;28;20662;-62
2023/09/22 06:14:28;;;;;;;3.17;0.60;;;;;;;17.03;73.10;99007.06;10420376;28;20483;-61
2023/09/22 06:19:30;;;;;;;1.70;0.50;;;;;;;17.14;72.87;99004.47;10426610;28;20049;-62
2023/09/22 06:24:31;;;;;;;1.13;0.80;;;;;;;17.32;72.71;99016.91;10405026;28;20045;-62
2023/09/22 06:29:33;;;;;;;1.15;0.30;;;;;;;17.44;72.62;99018.44;10417912;28;20060;-61
2023/09/22 06:34:34;;;;;;;5.95;0.40;;;;;;;17.55;72.74;99057.38;10431763;28;20618;-60
2023/09/22 06:39:36;;;;;;;3.63;0.40;;;;;;;17.66;72.43;99077.38;10427634;28;20360;-61
2023/09/22 06:44:37;;;;;;;0.75;0.30;;;;;;;17.64;72.38;99083.06;10414307;28;20115;-61
2023/09/22 06:49:39;;;;;;;2.90;0.40;;;;;;;17.67;72.46;99091.78;10433020;28;20510;-61
2023/09/22 06:54:40;;;;;;;0.60;0.30;;;;;;;17.70;72.35;99080.41;10428189;28;20476;-59
2023/09/22 06:59:42;;;;;;;0.57;0.40;;;;;;;17.70;72.29;99081.22;10431160;28;20843;-58
2023/09/22 07:04:43;;;;;;;2.53;0.47;;;;;;;17.83;72.05;99080.00;10427408;28;20084;-58
2023/09/22 07:09:45;;;;;;;2.55;0.43;;;;;;;17.97;71.54;99118.50;10426624;28;20045;-57
2023/09/22 07:14:46;;;;;;;1.10;0.20;;;;;;;17.97;71.73;99122.06;10428763;28;20046;-57
2023/09/22 07:19:48;;;;;;;1.55;0.35;;;;;;;17.99;71.46;99119.91;10417598;28;20061;-59
2023/09/22 07:24:52;;;;;;;1.67;0.30;;;;;;;17.94;71.43;99098.09;10408318;28;20051;-59
2023/09/22 07:29:54;;;;;;;1.17;0.30;;;;;;;17.97;71.32;99092.16;10428103;28;20075;-59
2023/09/22 07:34:55;;;;;;;2.05;0.25;;;;;;;18.02;71.19;99122.09;10424160;28;20380;-60
2023/09/22 07:39:56;;;;;;;1.13;0.30;;;;;;;18.10;70.82;99126.28;10431336;28;20049;-61
2023/09/22 07:44:58;;;;;;;1.33;0.32;;;;;;;18.06;70.85;99118.91;10423903;28;20045;-59
2023/09/22 07:50:00;;;;;;;3.47;0.30;;;;;;;18.23;70.61;99117.72;10425907;28;20069;-59
2023/09/22 07:55:02;;;;;;;0.75;0.30;;;;;;;18.29;70.60;99132.19;10426964;28;20064;-58
2023/09/22 08:00:09;;;;;;;3.72;0.32;;;;;;;18.26;70.53;99124.53;10408928;28;20045;-59
2023/09/22 08:05:15;;;;;;;0.20;0.20;;;;;;;18.26;70.50;99112.84;10420206;28;20076;-57
2023/09/22 08:10:22;;;;;;;3.63;0.30;;;;;;;18.45;70.15;99111.41;10426674;28;20396;-56
2023/09/22 08:15:25;;;;;;;0.88;0.32;;;;;;;18.54;69.94;99133.50;10425735;28;20389;-57
2023/09/22 08:20:26;;;;;;;2.85;0.50;;;;;;;18.60;69.77;99116.13;10427065;28;20909;-56
2023/09/22 08:25:28;;;;;;;0.60;0.20;;;;;;;18.71;69.38;99127.94;10429124;28;20053;-56
2023/09/22 08:30:30;;;;;;;1.75;0.30;;;;;;;18.82;69.20;99119.63;10424247;28;20048;-58
2023/09/22 08:35:32;;;;;;;2.15;0.40;;;;;;;18.91;68.63;99121.88;10414583;28;20106;-58
2023/09/22 08:40:33;;;;;;;3.72;0.60;;;;;;;18.94;68.52;99115.91;10426840;28;20044;-58
2023/09/22 08:45:35;;;;;;;1.55;0.30;;;;;;;19.10;67.98;99127.72;10425854;28;20523;-57
2023/09/22 08:50:37;;;;;;;2.50;0.30;;;;;;;19.15;68.05;99128.56;10419628;28;20049;-57
2023/09/22 08:55:39;;;;;;;2.88;0.50;;;;;;;19.08;67.74;99125.25;10422051;28;20056;-57
2023/09/22 09:00:41;;;;;;;2.33;0.30;;;;;;;19.15;67.06;99130.47;10422754;28;20057;-57
2023/09/22 09:05:43;;;;;;;3.50;0.20;;;;;;;19.19;66.74;99134.31;10421749;28;20626;-57
2023/09/22 09:10:46;;;;;;;2.20;0.55;;;;;;;19.30;66.34;99127.03;10421794;28;20131;-57
2023/09/22 09:15:50;;;;;;;2.08;0.30;;;;;;;19.35;66.07;99130.63;10425167;28;20046;-58
2023/09/22 09:21:06;;;;;;;2.75;0.30;;;;;;;19.37;65.88;99130.31;10432479;28;20114;-58
2023/09/22 09:26:08;;;;;;;2.83;0.30;;;;;;;19.55;65.23;99129.06;10431646;28;20049;-58
2023/09/22 09:31:10;;;;;;;1.50;0.30;;;;;;;19.80;64.79;99117.47;10432458;28;20052;-57
2023/09/22 09:36:15;;;;;;;1.17;0.25;;;;;;;19.93;64.18;99105.25;10432333;28;20252;-58
2023/09/22 09:41:20;;;;;;;3.70;0.20;;;;;;;20.11;63.77;99101.22;10431105;28;20056;-57
2023/09/22 09:46:21;;;;;;;2.20;0.22;;;;;;;20.23;63.32;99120.06;10422797;28;20061;-57
2023/09/22 09:51:26;;;;;;;0.55;0.30;;;;;;;20.43;62.10;99120.09;10424878;28;20494;-59
2023/09/22 09:56:28;;;;;;;0.60;0.20;;;;;;;20.72;60.92;99125.88;10417030;28;20056;-59
2023/09/22 10:01:32;;;;;;;4.95;0.20;;;;;;;20.74;60.74;99120.94;10418155;28;20357;-58
2023/09/22 10:06:34;;;;;;;0.75;0.32;;;;;;;20.64;60.06;99122.88;10416219;28;20061;-58
2023/09/22 10:11:50;;;;;;;0.35;0.15;;;;;;;20.46;59.92;99105.91;10412820;28;20522;-58
2023/09/22 10:16:52;;;;;;;1.48;0.10;;;;;;;20.65;59.30;99111.66;10421983;28;20052;-58
2023/09/22 10:21:55;;;;;;;4.07;0.28;;;;;;;20.72;58.37;99120.41;10419563;28;20396;-59
2023/09/22 10:26:56;;;;;;;1.45;0.38;;;;;;;20.65;58.42;99124.50;10426910;28;20056;-59
2023/09/22 10:32:25;;;;;;;0.52;0.20;;;;;;;20.24;57.74;99133.44;10426027;28;20056;-59
2023/09/22 10:37:29;;;;;;;0.90;0.28;;;;;;;19.92;57.61;99149.97;10427814;28;20058;-59
2023/09/22 10:42:30;;;;;;;0.40;0.30;;;;;;;19.81;57.53;99162.75;10428828;28;20072;-60
2023/09/22 10:47:39;;;;;;;0.35;0.30;;;;;;;19.93;56.51;99148.91;10425861;28;20042;-59
2023/09/22 10:52:49;;;;;;;1.17;0.20;;;;;;;19.92;56.46;99144.53;10421746;28;20060;-59
2023/09/22 10:57:50;;;;;;;0.57;0.17;;;;;;;20.00;55.50;99149.44;10423400;28;20051;-60
2023/09/22 11:02:54;;;;;;;3.05;0.75;;;;;;;20.38;54.28;99163.78;10427463;28;20049;-60
2023/09/22 11:07:55;;;;;;;0.47;0.10;;;;;;;20.99;53.18;99133.78;10424598;28;20049;-60
2023/09/22 11:12:58;;;;;;;0.88;0.10;;;;;;;21.39;53.07;99139.47;10424780;28;20091;-59
2023/09/22 11:17:59;;;;;;;1.90;0.25;;;;;;;21.65;51.70;99151.16;10425037;28;20051;-61
2023/09/22 11:23:02;;;;;;;2.00;0.30;;;;;;;21.88;50.41;99144.25;10420634;28;20045;-60
2023/09/22 11:28:04;;;;;;;3.10;0.30;;;;;;;21.89;50.07;99145.88;10422123;28;20063;-59
2023/09/22 11:33:14;;;;;;;2.30;0.22;;;;;;;21.84;48.66;99132.22;10427009;28;20049;-60
2023/09/22 11:38:24;;;;;;;1.13;0.63;;;;;;;22.15;48.47;99126.56;10402306;28;20046;-58
2023/09/22 11:43:25;;;;;;;1.45;0.10;;;;;;;22.45;48.02;99130.25;10427579;28;20136;-60
2023/09/22 11:48:26;;;;;;;0.55;0.10;;;;;;;22.75;47.33;99127.28;10424064;28;20195;-58
2023/09/22 11:53:28;;;;;;;0.40;0.20;;;;;;;22.94;46.61;99121.09;10424590;28;20066;-58
2023/09/22 11:58:29;;;;;;;0.60;0.10;;;;;;;23.29;45.66;99128.19;10426328;28;20576;-62
2023/09/22 12:03:32;;;;;;;2.63;0.20;;;;;;;23.44;44.85;99118.97;10424463;28;20575;-61
2023/09/22 12:08:34;;;;;;;0.85;0.10;;;;;;;23.56;44.00;99115.81;10425331;28;20096;-58
2023/09/22 12:13:35;;;;;;;0.65;0.10;;;;;;;23.34;44.71;99119.91;10425424;28;20423;-59
2023/09/22 12:18:37;;;;;;;2.67;0.20;;;;;;;22.47;45.01;99122.56;10427825;28;20075;-58
2023/09/22 12:23:38;;;;;;;1.30;0.20;;;;;;;22.17;45.28;99107.94;10430843;28;20049;-58
2023/09/22 12:28:40;;;;;;;2.10;0.10;;;;;;;22.25;45.39;99095.63;10427561;28;20044;-58
2023/09/22 12:33:42;;;;;;;0.88;0.10;;;;;;;22.61;43.69;99096.19;10425106;28;20047;-57
2023/09/22 12:38:45;;;;;;;1.23;0.20;;;;;;;22.69;42.23;99081.03;10418897;28;20045;-57
2023/09/22 12:43:46;;;;;;;2.92;0.10;;;;;;;23.05;41.29;99097.19;10424421;28;20052;-62
2023/09/22 12:48:48;;;;;;;0.40;0.10;;;;;;;23.21;40.94;99106.06;10420307;28;20047;-61
2023/09/22 12:53:49;;;;;;;1.13;0.30;;;;;;;23.49;40.94;99101.63;10422427;28;20041;-63
2023/09/22 12:58:51;;;;;;;1.17;0.10;;;;;;;23.41;40.69;99107.78;10422642;28;20500;-63
2023/09/22 13:03:52;;;;;;;0.85;0.38;;;;;;;23.59;40.38;99090.53;10420767;28;20056;-63
2023/09/22 13:08:54;;;;;;;1.13;0.10;;;;;;;23.70;40.03;99102.22;10425339;28;20126;-64
2023/09/22 13:13:56;;;;;;;1.20;0.17;;;;;;;23.94;39.83;99105.75;10422978;28;20049;-63
2023/09/22 13:18:57;;;;;;;0.43;0.13;;;;;;;24.23;39.70;99090.25;10419898;28;20060;-62
2023/09/22 13:23:59;;;;;;;0.43;0.10;;;;;;;24.22;39.85;99094.94;10420510;28;20048;-63
2023/09/22 13:29:00;;;;;;;1.48;0.10;;;;;;;24.13;40.15;99094.78;10426783;28;20132;-62
2023/09/22 13:34:02;;;;;;;2.50;0.25;;;;;;;24.05;39.69;99097.38;10422712;28;20052;-63
2023/09/22 13:39:03;;;;;;;0.45;0.20;;;;;;;23.59;40.09;99086.97;10432540;28;20037;-62
2023/09/22 13:44:07;;;;;;;1.75;0.43;;;;;;;23.32;40.63;99083.72;10425552;28;20053;-63
2023/09/22 13:49:08;;;;;;;0.52;0.10;;;;;;;23.23;40.33;99069.03;10423291;28;20042;-61
2023/09/22 13:54:10;;;;;;;1.60;0.10;;;;;;;23.65;39.66;99069.34;10422331;28;20045;-60
2023/09/22 13:59:12;;;;;;;0.40;0.10;;;;;;;26.13;36.35;99057.31;10419294;28;20084;-60
2023/09/22 14:04:13;;;;;;;1.50;0.20;;;;;;;26.37;35.64;99064.47;10416790;28;20055;-60
2023/09/22 14:09:15;;;;;;;1.08;0.20;;;;;;;27.00;34.40;99062.59;10418871;28;20050;-60
2023/09/22 14:14:20;;;;;;;2.60;0.20;;;;;;;26.77;34.57;99053.56;10420614;28;20164;-61
2023/09/22 14:19:21;;;;;;;2.15;0.30;;;;;;;25.89;36.20;99055.59;10424974;28;20068;-57
2023/09/22 14:24:23;;;;;;;0.47;0.10;;;;;;;25.48;36.37;99056.47;10424968;28;20049;-59
2023/09/22 14:29:24;;;;;;;1.75;0.20;;;;;;;24.89;36.78;99058.97;10424852;28;20064;-58
2023/09/22 14:34:26;;;;;;;1.10;0.10;;;;;;;24.59;37.36;99054.03;10423591;28;20046;-58
2023/09/22 14:39:28;;;;;;;1.25;0.20;;;;;;;24.49;38.19;99058.53;10423882;28;20140;-57
2023/09/22 14:44:29;;;;;;;1.35;0.30;;;;;;;24.17;38.93;99058.47;10423333;28;20099;-58
2023/09/22 14:49:31;;;;;;;1.58;0.20;;;;;;;23.98;40.48;99058.50;10421119;28;20049;-57
2023/09/22 14:54:32;;;;;;;0.28;0.17;;;;;;;24.01;39.88;99060.66;10417551;28;20127;-58
2023/09/22 14:59:35;;;;;;;0.43;0.22;;;;;;;23.91;40.97;99073.44;10422993;28;20052;-58
2023/09/22 15:04:36;;;;;;;2.40;0.52;;;;;;;24.52;40.11;99060.69;10425943;28;20048;-55
2023/09/22 15:09:40;;;;;;;0.47;0.20;;;;;;;24.76;40.05;99064.44;10421130;28;20045;-56
2023/09/22 15:14:41;;;;;;;0.50;0.20;;;;;;;24.48;40.24;99064.31;10433469;28;20500;-56
2023/09/22 15:19:42;;;;;;;1.15;0.30;;;;;;;24.17;41.27;99072.22;10431127;28;20511;-57
2023/09/22 15:24:44;;;;;;;4.68;0.65;;;;;;;24.58;40.10;99066.91;10423167;28;20054;-55
2023/09/22 15:29:46;;;;;;;1.33;0.20;;;;;;;25.09;39.78;99073.44;10427477;28;20068;-56
2023/09/22 15:34:48;;;;;;;0.57;0.20;;;;;;;24.66;40.14;99077.22;10423418;28;20057;-59
2023/09/22 15:39:50;;;;;;;1.38;0.20;;;;;;;24.05;41.08;99094.63;10429404;28;20374;-57
2023/09/22 15:44:51;;;;;;;2.63;0.20;;;;;;;23.77;41.10;99094.41;10423786;28;20405;-60
2023/09/22 15:49:54;;;;;;;1.05;0.30;;;;;;;23.69;41.50;99100.56;10429169;28;20049;-56
2023/09/22 15:54:55;;;;;;;0.60;0.13;;;;;;;23.50;41.66;99095.88;10425248;28;20049;-57
2023/09/22 15:59:57;;;;;;;2.30;0.60;;;;;;;23.85;41.09;99091.03;10430230;28;20045;-58
2023/09/22 16:04:58;;;;;;;3.22;0.20;;;;;;;23.85;41.89;99091.03;10427532;28;20053;-57
2023/09/22 16:10:00;;;;;;;2.25;0.20;;;;;;;23.56;42.30;99099.38;10427897;28;20044;-56
2023/09/22 16:15:02;;;;;;;2.40;0.20;;;;;;;23.29;43.21;99097.19;10423725;28;20135;-61
2023/09/22 16:20:04;;;;;;;2.55;0.30;;;;;;;23.13;43.28;99094.63;10425923;28;20041;-62
2023/09/22 16:25:06;;;;;;;0.35;0.17;;;;;;;22.92;43.86;99102.19;10429886;28;20052;-62
2023/09/22 16:30:09;;;;;;;0.90;0.20;;;;;;;22.84;44.25;99104.75;10421136;28;20088;-62
2023/09/22 16:35:10;;;;;;;3.10;0.30;;;;;;;22.73;44.65;99102.09;10429745;28;20041;-61
2023/09/22 16:40:11;;;;;;;1.10;0.20;;;;;;;22.66;44.78;99098.88;10424409;28;20503;-61
2023/09/22 16:45:13;;;;;;;0.55;0.20;;;;;;;22.56;45.13;99097.03;10423416;28;20399;-62
2023/09/22 16:50:18;;;;;;;1.13;0.20;;;;;;;22.33;45.64;99095.00;10420557;28;20049;-61
2023/09/22 16:55:21;;;;;;;0.68;0.20;;;;;;;22.15;46.21;99097.28;10422602;28;20585;-62
2023/09/22 17:00:24;;;;;;;1.92;0.30;;;;;;;22.03;46.80;99096.00;10423801;28;20085;-62
2023/09/22 17:05:25;;;;;;;0.75;0.20;;;;;;;21.94;46.95;99085.66;10427259;28;20110;-62
2023/09/22 17:10:27;;;;;;;1.67;0.22;;;;;;;21.92;46.96;99073.34;10432738;28;20131;-62
2023/09/22 17:15:29;;;;;;;4.07;0.30;;;;;;;21.80;47.40;99079.16;10412136;28;20098;-59
2023/09/22 17:20:31;;;;;;;0.85;0.35;;;;;;;21.61;47.91;99100.03;10406525;28;20116;-59
2023/09/22 17:25:33;;;;;;;2.75;0.30;;;;;;;20.53;51.16;99190.25;10421370;28;20142;-60
2023/09/22 17:30:36;;;;;;;0.73;0.30;;;;;;;17.25;63.12;99247.97;10441831;28;20045;-60
2023/09/22 17:35:37;;;;;;;2.40;0.08;;;;;;;16.35;65.91;99242.28;10442733;28;20064;-60
2023/09/22 17:40:46;;;;;;;0.00;0.00;;;;;;;15.85;66.31;99245.56;10443614;28;20040;-58
2023/09/22 17:45:56;;;;;;;0.00;0.00;;;;;;;15.39;67.74;99242.63;10455909;28;20054;-58
2023/09/22 17:50:57;;;;;;;0.00;0.00;;;;;;;15.21;68.08;99251.66;10426045;28;20411;-58
2023/09/22 17:56:05;;;;;;;0.00;0.00;;;;;;;15.16;68.23;99265.06;10433403;28;20044;-58
2023/09/22 18:01:10;;;;;;;0.00;0.00;;;;;;;15.32;68.21;99268.97;10427241;28;20041;-58
2023/09/22 18:06:12;;;;;;;0.00;0.00;;;;;;;15.20;68.99;99276.25;10409514;28;20049;-58
2023/09/22 18:11:13;;;;;;;0.00;0.00;;;;;;;15.35;68.99;99275.81;10427329;28;20510;-57
2023/09/22 18:16:14;;;;;;;0.00;0.00;;;;;;;15.43;68.90;99272.78;10413957;28;20055;-58
2023/09/22 18:21:16;;;;;;;0.00;0.00;;;;;;;15.28;69.59;99281.34;10410816;28;20052;-57
2023/09/22 18:26:18;;;;;;;0.00;0.00;;;;;;;15.16;70.31;99286.72;10417699;28;20657;-57
2023/09/22 18:31:25;;;;;;;0.00;0.00;;;;;;;15.14;70.29;99286.13;10410625;28;20056;-58
2023/09/22 18:36:27;;;;;;;0.00;0.00;;;;;;;15.00;70.92;99290.94;10425320;28;20045;-56
2023/09/22 18:41:28;;;;;;;0.00;0.00;;;;;;;14.97;71.33;99294.09;10421760;28;20067;-56
2023/09/22 18:46:30;;;;;;;0.00;0.00;;;;;;;14.93;71.55;99298.34;10427747;28;20106;-57
2023/09/22 18:51:31;;;;;;;0.00;0.00;;;;;;;15.07;71.36;99315.19;10434148;28;20100;-56
2023/09/22 18:56:33;;;;;;;0.00;0.00;;;;;;;15.14;71.43;99321.31;10426985;28;20049;-56
2023/09/22 19:01:35;;;;;;;0.00;0.00;;;;;;;15.18;71.50;99325.22;10431208;28;20059;-57
2023/09/22 19:06:36;;;;;;;0.00;0.00;;;;;;;15.09;71.84;99329.31;10430966;28;20048;-57
2023/09/22 19:11:38;;;;;;;0.00;0.00;;;;;;;15.00;72.11;99342.34;10430842;28;20249;-56
2023/09/22 19:16:41;;;;;;;0.00;0.00;;;;;;;14.94;72.50;99347.88;10430077;28;20067;-56
2023/09/22 19:21:43;;;;;;;0.00;0.00;;;;;;;14.91;72.69;99353.72;10430575;28;20057;-57
2023/09/22 19:26:51;;;;;;;0.00;0.00;;;;;;;14.93;72.57;99370.56;10429062;28;20050;-57
2023/09/22 19:31:53;;;;;;;0.00;0.00;;;;;;;14.86;72.73;99387.69;10425599;28;20064;-57
2023/09/22 19:36:54;;;;;;;0.00;0.00;;;;;;;14.88;72.70;99392.91;10429139;28;20968;-58
2023/09/22 19:41:56;;;;;;;0.00;0.00;;;;;;;14.83;72.85;99396.28;10407581;28;20526;-55
2023/09/22 19:46:57;;;;;;;0.00;0.00;;;;;;;14.80;72.79;99404.84;10417538;28;20041;-54
2023/09/22 19:51:59;;;;;;;0.00;0.00;;;;;;;14.80;72.92;99402.16;10424290;28;20049;-57
2023/09/22 19:57:01;;;;;;;0.00;0.00;;;;;;;14.77;73.10;99396.34;10420866;28;20426;-56
2023/09/22 20:02:02;;;;;;;0.00;0.00;;;;;;;14.74;73.24;99413.06;10420922;28;20459;-57
2023/09/22 20:07:04;;;;;;;0.00;0.00;;;;;;;14.72;73.27;99413.28;10425789;28;20051;-55
2023/09/22 20:12:06;;;;;;;0.00;0.00;;;;;;;14.70;73.43;99414.56;10419885;28;20050;-57
2023/09/22 20:17:07;;;;;;;0.00;0.00;;;;;;;14.68;73.43;99417.50;10424978;28;20049;-55
2023/09/22 20:22:09;;;;;;;0.00;0.00;;;;;;;14.61;73.64;99425.69;10425874;28;20048;-56
2023/09/22 20:27:10;;;;;;;0.00;0.00;;;;;;;14.61;74.01;99424.84;10425110;28;20049;-55
2023/09/22 20:32:12;;;;;;;0.35;0.35;;;;;;;14.58;74.47;99439.66;10433809;28;20050;-54
2023/09/22 20:37:14;;;;;;;0.00;0.00;;;;;;;14.71;74.14;99444.09;10429174;28;20041;-55
2023/09/22 20:42:16;;;;;;;0.00;0.00;;;;;;;14.74;74.13;99440.13;10428523;28;20045;-55
2023/09/22 20:47:19;;;;;;;0.00;0.00;;;;;;;14.74;74.08;99432.81;10425591;28;20057;-55
2023/09/22 20:52:21;;;;;;;0.00;0.00;;;;;;;14.76;73.93;99432.59;10429297;28;20037;-57
2023/09/22 20:57:23;;;;;;;0.00;0.00;;;;;;;14.75;74.02;99434.47;10432520;28;20057;-58
2023/09/22 21:02:26;;;;;;;0.00;0.00;;;;;;;14.74;73.81;99438.22;10429038;28;20396;-57
2023/09/22 21:07:28;;;;;;;0.00;0.00;;;;;;;14.73;74.01;99447.41;10413398;28;20137;-58
2023/09/22 21:12:30;;;;;;;0.00;0.00;;;;;;;14.65;74.09;99459.34;10429503;28;20123;-58
2023/09/22 21:17:32;;;;;;;0.00;0.00;;;;;;;14.60;74.30;99472.72;10427076;28;20056;-57
2023/09/22 21:22:33;;;;;;;0.00;0.00;;;;;;;14.64;73.89;99478.50;10428194;28;20076;-57
2023/09/22 21:27:34;;;;;;;0.00;0.00;;;;;;;14.61;74.01;99487.06;10426988;28;20055;-58
2023/09/22 21:32:36;;;;;;;0.00;0.00;;;;;;;14.61;74.22;99489.75;10412121;28;20410;-59
2023/09/22 21:37:40;;;;;;;0.00;0.00;;;;;;;14.69;74.04;99492.16;10424163;28;20049;-58
2023/09/22 21:42:42;;;;;;;0.00;0.00;;;;;;;14.72;73.72;99496.31;10426715;28;20041;-57
2023/09/22 21:47:43;;;;;;;0.00;0.00;;;;;;;14.68;73.65;99498.66;10407386;28;20427;-58
2023/09/22 21:52:45;;;;;;;0.00;0.00;;;;;;;14.60;73.75;99510.56;10420673;28;20117;-57
2023/09/22 21:57:46;;;;;;;0.00;0.00;;;;;;;14.58;73.97;99503.75;10422620;28;20118;-56
2023/09/22 22:02:48;;;;;;;0.00;0.00;;;;;;;14.52;73.76;99512.72;10422084;28;20053;-57
2023/09/22 22:07:51;;;;;;;0.00;0.00;;;;;;;14.52;73.98;99520.84;10416669;28;21941;-56
2023/09/22 22:12:53;;;;;;;0.00;0.00;;;;;;;14.48;74.16;99518.56;10425139;28;20045;-55
2023/09/22 22:17:54;;;;;;;0.00;0.00;;;;;;;14.54;74.27;99534.97;10421017;28;20057;-56
2023/09/22 22:22:56;;;;;;;0.00;0.00;;;;;;;14.62;74.00;99551.75;10400070;28;20392;-56
2023/09/22 22:27:58;;;;;;;0.00;0.00;;;;;;;14.70;74.17;99560.66;10423911;28;20073;-56
2023/09/22 22:33:00;;;;;;;0.00;0.00;;;;;;;14.72;74.23;99569.38;10422454;28;20040;-56
2023/09/22 22:38:05;;;;;;;0.00;0.00;;;;;;;14.70;74.26;99575.00;10425213;28;20079;-55
2023/09/22 22:43:08;;;;;;;0.00;0.00;;;;;;;14.67;74.51;99584.38;10422424;28;20064;-57
2023/09/22 22:48:12;;;;;;;0.00;0.00;;;;;;;14.79;74.13;99587.19;10422524;28;20485;-55
2023/09/22 22:53:16;;;;;;;0.00;0.00;;;;;;;14.82;74.00;99607.56;10420219;28;20049;-56
2023/09/22 22:58:17;;;;;;;0.00;0.00;;;;;;;14.84;74.20;99608.97;10424998;28;20053;-56
2023/09/22 23:03:24;;;;;;;0.00;0.00;;;;;;;14.80;74.22;99620.47;10421093;28;20159;-57
2023/09/22 23:08:26;;;;;;;0.00;0.00;;;;;;;14.86;74.21;99627.72;10424735;28;20053;-56
2023/09/22 23:13:28;;;;;;;0.00;0.00;;;;;;;14.82;74.08;99632.72;10421002;28;20060;-56
2023/09/22 23:18:34;;;;;;;0.00;0.00;;;;;;;14.73;74.28;99635.94;10419089;28;20164;-56
2023/09/22 23:23:36;;;;;;;0.00;0.00;;;;;;;14.66;74.36;99644.94;10414696;28;20168;-56